CheckWX is a tool to help pilots better visualize weather data.  It is not intended as a substitute for an official pre-flight weather briefing.

23:28:34 UTC

KOZR TAF
Cairns AAF (Fort Rucker) Airport
Fort Rucker/Ozark, Alabama, USA
TAF KOZR 161600Z 1616/1722 35009KT 9999 BKN035 QNH3005INS BECMG 1623/1624 01006KT 9999 BKN040 QNH3008INS BECMG 1703/1704 36006KT 9999 FEW020 QNH2996INS TX15/1620Z TN05/1712Z

Nov-16@
16:00 UTC

Nov-16 @ 16:00 UTC

Nov-16@
23:00 UTC

Nov-16 @ 23:00 UTC

TAF KOZR 161600Z 1616/1722 35009KT 9999 BKN035 QNH3005INS

Expired

Wind
  • 350° at 9 KTS
Cloud Levels
  • Broken at 3,500' AGL

Nov-16@
23:00 UTC

Nov-16 @ 23:00 UTC

Nov-17@
03:00 UTC

Nov-17 @ 03:00 UTC

BECMG 1623/1624 01006KT 9999 BKN040 QNH3008INS

Becoming

Becoming Conditions expected by Sun, Nov 17, 2019 @ 00:00 UTC

Wind
  • 010° at 6 KTS
Cloud Levels
  • Broken at 4,000' AGL

Nov-17@
03:00 UTC

Nov-17 @ 03:00 UTC

Nov-17@
22:00 UTC

Nov-17 @ 22:00 UTC

BECMG 1703/1704 36006KT 9999 FEW020 QNH2996INS TX15/1620Z TN05/1712Z

Becoming

Becoming Conditions expected by Sun, Nov 17, 2019 @ 04:00 UTC

Wind
  • 360° at 6 KTS
Cloud Levels
  • Few at 2,000' AGL